createdAt,value
2019-02-20T00:01:11.886Z,10.98
2019-02-20T00:03:41.424Z,10.91
2019-02-20T00:06:11.055Z,10.84
2019-02-20T00:08:40.770Z,10.79
2019-02-20T00:11:10.344Z,10.87
2019-02-20T00:13:39.989Z,10.79
2019-02-20T00:16:09.546Z,10.74
2019-02-20T00:18:39.277Z,10.70
2019-02-20T00:21:08.893Z,10.62
2019-02-20T00:23:38.548Z,10.67
2019-02-20T00:26:08.328Z,10.64
2019-02-20T00:28:37.984Z,10.61
2019-02-20T00:31:07.812Z,10.50
2019-02-20T00:33:37.503Z,10.59
2019-02-20T00:36:07.432Z,10.62
2019-02-20T00:38:37.018Z,10.53
2019-02-20T00:41:06.547Z,10.47
2019-02-20T00:43:36.184Z,10.56
2019-02-20T00:46:23.221Z,10.53
2019-02-20T00:48:56.998Z,10.46
2019-02-20T00:51:37.008Z,10.52
2019-02-20T00:54:09.292Z,10.40
2019-02-20T00:56:38.824Z,10.32
2019-02-20T00:59:08.411Z,10.33
2019-02-20T01:01:38.034Z,10.21
2019-02-20T01:04:07.593Z,10.02
2019-02-20T01:06:37.148Z,9.89
2019-02-20T01:09:07.526Z,10.09
2019-02-20T01:11:37.282Z,10.06
2019-02-20T01:14:07.211Z,9.97
2019-02-20T01:16:36.784Z,10.02
2019-02-20T01:19:06.403Z,10.11
2019-02-20T01:21:36.032Z,9.96
2019-02-20T01:24:05.649Z,10.03
2019-02-20T01:26:35.291Z,10.02
2019-02-20T01:29:04.938Z,9.83
2019-02-20T01:31:34.456Z,9.84
2019-02-20T01:34:04.076Z,9.84
2019-02-20T01:36:33.656Z,9.73
2019-02-20T01:39:04.407Z,9.83
2019-02-20T01:41:34.012Z,9.78
2019-02-20T01:44:03.670Z,9.25
2019-02-20T01:46:33.191Z,8.85
2019-02-20T01:49:02.735Z,8.88
2019-02-20T01:51:32.282Z,8.97
2019-02-20T01:54:01.952Z,9.46
2019-02-20T01:56:31.459Z,9.62
2019-02-20T01:59:01.074Z,9.58
2019-02-20T02:01:30.787Z,9.62
2019-02-20T02:04:00.406Z,9.60
2019-02-20T02:06:30.016Z,9.50
2019-02-20T02:09:00.651Z,9.57
2019-02-20T02:11:30.148Z,9.49
2019-02-20T02:13:59.746Z,9.53
2019-02-20T02:16:29.340Z,9.62
2019-02-20T02:18:58.858Z,9.62
2019-02-20T02:21:28.690Z,9.65
2019-02-20T02:23:58.258Z,9.63
2019-02-20T02:26:27.938Z,9.52
2019-02-20T02:28:57.538Z,9.50
2019-02-20T02:31:27.132Z,9.39
2019-02-20T02:33:56.668Z,9.53
2019-02-20T02:36:26.218Z,9.55
2019-02-20T02:38:55.776Z,9.43
2019-02-20T02:41:25.307Z,9.42
2019-02-20T02:43:54.825Z,9.44
2019-02-20T02:46:24.421Z,9.51
2019-02-20T02:48:53.943Z,9.63
2019-02-20T02:51:23.548Z,9.53
2019-02-20T02:53:53.131Z,9.60
2019-02-20T02:56:22.663Z,9.45
2019-02-20T02:58:52.215Z,9.36
2019-02-20T03:01:21.842Z,8.84
2019-02-20T03:03:51.406Z,8.85
2019-02-20T03:06:20.908Z,8.92
2019-02-20T03:08:50.440Z,9.12
2019-02-20T03:11:20.183Z,9.22
2019-02-20T03:13:49.699Z,9.29
2019-02-20T03:16:19.293Z,9.26
2019-02-20T03:18:48.798Z,9.29
2019-02-20T03:21:18.360Z,9.26
2019-02-20T03:23:47.955Z,9.22
2019-02-20T03:26:17.512Z,9.27
2019-02-20T03:28:47.021Z,9.04
2019-02-20T03:31:16.578Z,8.98
2019-02-20T03:33:46.081Z,9.13
2019-02-20T03:36:15.628Z,9.08
2019-02-20T03:38:45.141Z,9.14
2019-02-20T03:41:14.667Z,9.10
2019-02-20T03:43:44.272Z,9.10
2019-02-20T03:46:13.780Z,9.08
2019-02-20T03:48:43.351Z,9.13
2019-02-20T03:51:12.942Z,9.01
2019-02-20T03:53:51.302Z,9.05
2019-02-20T03:56:13.771Z,8.91
2019-02-20T03:58:43.319Z,8.84
2019-02-20T04:01:12.935Z,8.54
2019-02-20T04:03:42.540Z,8.29
2019-02-20T04:06:12.064Z,8.27
2019-02-20T04:08:41.597Z,8.33
2019-02-20T04:11:11.187Z,8.34
2019-02-20T04:13:40.745Z,8.32
2019-02-20T04:16:10.230Z,8.25
2019-02-20T04:18:39.931Z,8.20
2019-02-20T04:21:09.508Z,8.17
2019-02-20T04:23:39.016Z,8.41
2019-02-20T04:26:09.895Z,8.28
2019-02-20T04:28:39.571Z,8.22
2019-02-20T04:31:09.139Z,7.90
2019-02-20T04:33:38.705Z,8.03
2019-02-20T04:36:08.324Z,7.88
2019-02-20T04:38:37.963Z,7.72
2019-02-20T04:41:07.552Z,7.97
2019-02-20T04:43:37.114Z,8.19
2019-02-20T04:46:06.658Z,8.40
2019-02-20T04:48:36.194Z,8.39
2019-02-20T04:51:05.723Z,8.47
2019-02-20T04:53:35.283Z,8.35
2019-02-20T04:56:04.628Z,8.50
2019-02-20T04:58:33.977Z,8.22
2019-02-20T05:01:03.323Z,8.20
2019-02-20T05:03:32.787Z,8.09
2019-02-20T05:06:02.139Z,8.08
2019-02-20T05:08:31.492Z,7.88
2019-02-20T05:11:00.826Z,7.61
2019-02-20T05:13:30.184Z,7.65
2019-02-20T05:15:59.510Z,8.09
2019-02-20T05:18:28.871Z,8.10
2019-02-20T05:20:58.209Z,8.12
2019-02-20T05:23:27.559Z,8.12
2019-02-20T05:25:56.906Z,7.94
2019-02-20T05:28:26.285Z,7.83
2019-02-20T05:30:55.629Z,7.65
2019-02-20T05:33:24.994Z,7.81
2019-02-20T05:35:54.416Z,7.69
2019-02-20T05:38:23.767Z,7.98
2019-02-20T05:40:53.115Z,8.03
2019-02-20T05:43:22.496Z,8.20
2019-02-20T05:45:51.845Z,8.14
2019-02-20T05:48:21.234Z,7.95
2019-02-20T05:50:50.572Z,6.86
2019-02-20T05:53:19.932Z,6.80
2019-02-20T05:55:49.288Z,7.87
2019-02-20T05:58:18.642Z,8.04
2019-02-20T06:00:47.977Z,8.03
2019-02-20T06:03:17.339Z,8.14
2019-02-20T06:05:46.680Z,7.94
2019-02-20T06:08:16.029Z,7.89
2019-02-20T06:10:45.376Z,7.80
2019-02-20T06:13:14.726Z,7.75
2019-02-20T06:15:44.054Z,7.86
2019-02-20T06:18:13.473Z,7.69
2019-02-20T06:20:42.832Z,7.68
2019-02-20T06:23:12.273Z,7.66
2019-02-20T06:25:41.689Z,7.72
2019-02-20T06:28:11.033Z,7.74
2019-02-20T06:30:40.380Z,7.87
2019-02-20T06:33:09.734Z,7.73
2019-02-20T06:35:39.091Z,7.91
2019-02-20T06:38:10.687Z,7.57
2019-02-20T06:40:39.669Z,7.54
2019-02-20T06:43:09.010Z,7.21
2019-02-20T06:45:38.357Z,7.54
2019-02-20T06:48:07.705Z,7.70
2019-02-20T06:50:37.076Z,6.87
2019-02-20T06:53:06.411Z,6.98
2019-02-20T06:55:35.805Z,7.15
2019-02-20T06:58:05.535Z,7.34
2019-02-20T07:00:34.956Z,7.45
2019-02-20T07:03:04.328Z,7.42
2019-02-20T07:05:41.674Z,7.78
2019-02-20T07:08:43.946Z,7.63
2019-02-20T07:11:54.581Z,7.63
2019-02-20T07:14:54.530Z,7.82
2019-02-20T07:18:14.504Z,7.89
2019-02-20T07:21:13.197Z,7.80
2019-02-20T07:24:04.922Z,7.39
2019-02-20T07:27:11.683Z,8.99
2019-02-20T07:29:59.930Z,8.35
2019-02-20T07:32:29.475Z,8.14
2019-02-20T07:34:59.150Z,8.14
2019-02-20T07:37:28.511Z,8.11
2019-02-20T07:39:57.933Z,8.07
2019-02-20T07:42:27.295Z,8.06
2019-02-20T07:44:56.753Z,8.12
2019-02-20T07:47:26.263Z,8.09
2019-02-20T07:49:55.570Z,8.22
2019-02-20T07:52:24.950Z,8.43
2019-02-20T07:54:54.313Z,8.62
2019-02-20T07:57:23.691Z,8.54
2019-02-20T07:59:53.023Z,8.52
2019-02-20T08:02:22.724Z,8.59
2019-02-20T08:04:52.051Z,8.74
2019-02-20T08:07:21.423Z,8.84
2019-02-20T08:09:50.769Z,8.84
2019-02-20T08:12:20.115Z,8.81
2019-02-20T08:14:49.543Z,8.91
2019-02-20T08:17:18.894Z,8.96
2019-02-20T08:19:48.298Z,8.99
2019-02-20T08:22:17.605Z,9.05
2019-02-20T08:24:46.952Z,9.19
2019-02-20T08:27:16.310Z,9.40
2019-02-20T08:29:45.663Z,9.47
2019-02-20T08:32:15.025Z,9.55
2019-02-20T08:34:44.366Z,9.61
2019-02-20T08:37:13.738Z,9.75
2019-02-20T08:39:43.198Z,9.91
2019-02-20T08:42:12.613Z,9.97
2019-02-20T08:44:41.967Z,10.07
2019-02-20T08:47:11.328Z,10.14
2019-02-20T08:49:40.678Z,10.12
2019-02-20T08:52:10.088Z,10.20
2019-02-20T08:54:39.387Z,10.31
2019-02-20T08:57:08.742Z,10.49
2019-02-20T08:59:38.136Z,10.55
2019-02-20T09:02:07.493Z,10.66
2019-02-20T09:04:36.926Z,10.75
2019-02-20T09:07:06.296Z,11.40
2019-02-20T09:09:35.645Z,11.69
2019-02-20T09:12:05.476Z,11.85
2019-02-20T09:14:34.836Z,11.81
2019-02-20T09:17:04.198Z,11.92
2019-02-20T09:19:33.558Z,11.88
2019-02-20T09:22:02.904Z,12.04
2019-02-20T09:24:32.250Z,12.28
2019-02-20T09:27:01.617Z,12.13
2019-02-20T09:29:31.016Z,12.20
2019-02-20T09:32:00.425Z,12.35
2019-02-20T09:34:29.797Z,12.39
2019-02-20T09:36:59.138Z,12.44
2019-02-20T09:39:32.921Z,12.50
2019-02-20T09:42:02.580Z,12.60
2019-02-20T09:44:34.873Z,12.74
2019-02-20T09:47:04.279Z,12.83
2019-02-20T09:49:33.640Z,12.98
2019-02-20T09:52:03.011Z,13.08
2019-02-20T09:54:32.375Z,13.20
2019-02-20T09:57:01.739Z,13.42
2019-02-20T09:59:31.156Z,13.61
2019-02-20T10:02:00.533Z,13.84
2019-02-20T10:04:29.886Z,13.84
2019-02-20T10:06:59.241Z,13.80
2019-02-20T10:09:28.615Z,14.17
2019-02-20T10:11:57.951Z,14.31
2019-02-20T10:14:27.337Z,14.27
2019-02-20T10:16:56.680Z,14.20
2019-02-20T10:19:26.028Z,14.33
2019-02-20T10:21:55.409Z,14.48
2019-02-20T10:24:24.834Z,14.61
2019-02-20T10:27:00.459Z,14.52
2019-02-20T10:29:25.220Z,14.56
2019-02-20T10:31:54.583Z,14.88
2019-02-20T10:34:23.940Z,15.45
2019-02-20T10:36:53.280Z,15.93
2019-02-20T10:39:22.641Z,15.58
2019-02-20T10:41:52.009Z,15.26
2019-02-20T10:44:21.347Z,15.81
2019-02-20T10:46:50.739Z,16.15
2019-02-20T10:49:20.088Z,16.16
2019-02-20T10:51:49.438Z,17.02
2019-02-20T10:54:18.792Z,15.85
2019-02-20T10:56:48.173Z,15.55
2019-02-20T10:59:17.507Z,15.33
2019-02-20T11:01:46.954Z,15.27
2019-02-20T11:04:16.375Z,15.16
2019-02-20T11:06:45.737Z,15.69
2019-02-20T11:09:15.097Z,16.03
2019-02-20T11:11:44.448Z,15.72
2019-02-20T11:14:13.788Z,15.36
2019-02-20T11:16:43.152Z,15.31
2019-02-20T11:19:12.496Z,15.27
2019-02-20T11:21:41.861Z,15.34
2019-02-20T11:24:11.224Z,15.45
2019-02-20T11:26:46.250Z,15.44
2019-02-20T11:29:11.644Z,15.51
2019-02-20T11:31:41.075Z,16.07
2019-02-20T11:34:10.425Z,16.65
2019-02-20T11:36:40.544Z,16.35
2019-02-20T11:39:11.690Z,16.50
2019-02-20T11:41:41.151Z,16.95
2019-02-20T11:44:10.540Z,17.61
2019-02-20T11:46:39.964Z,17.46
2019-02-20T11:49:09.331Z,17.65
2019-02-20T11:51:39.073Z,17.46
2019-02-20T11:54:08.422Z,17.05
2019-02-20T11:56:37.763Z,17.55
2019-02-20T11:59:07.193Z,17.41
2019-02-20T12:01:36.544Z,17.55
2019-02-20T12:04:05.981Z,17.83
2019-02-20T12:06:35.326Z,17.81
2019-02-20T12:09:05.879Z,17.52
2019-02-20T12:11:35.329Z,17.60
2019-02-20T12:14:04.675Z,17.78
2019-02-20T12:16:34.041Z,17.44
2019-02-20T12:19:03.454Z,17.21
2019-02-20T12:21:32.817Z,17.68
2019-02-20T12:24:02.157Z,17.85
2019-02-20T12:26:35.114Z,17.15
2019-02-20T12:29:02.622Z,17.02
2019-02-20T12:31:31.992Z,17.03
2019-02-20T12:34:01.667Z,17.93
2019-02-20T12:36:31.060Z,17.69
2019-02-20T12:39:00.415Z,17.29
2019-02-20T12:41:30.296Z,17.04
2019-02-20T12:43:59.675Z,17.43
2019-02-20T12:46:29.039Z,17.17
2019-02-20T12:48:58.400Z,17.16
2019-02-20T12:51:27.746Z,17.08
2019-02-20T12:53:57.105Z,17.23
2019-02-20T12:56:26.582Z,17.14
2019-02-20T12:58:55.929Z,16.89
2019-02-20T13:01:25.340Z,17.66
2019-02-20T13:03:54.680Z,17.31
2019-02-20T13:06:24.056Z,17.27
2019-02-20T13:08:53.429Z,17.17
2019-02-20T13:11:23.007Z,17.60
2019-02-20T13:13:52.366Z,17.69
2019-02-20T13:16:21.700Z,16.95
2019-02-20T13:18:51.084Z,16.83
2019-02-20T13:21:20.433Z,17.09
2019-02-20T13:23:49.795Z,17.14
2019-02-20T13:26:19.127Z,17.10
2019-02-20T13:28:48.463Z,17.23
2019-02-20T13:31:17.822Z,17.34
2019-02-20T13:33:47.170Z,17.22
2019-02-20T13:36:16.604Z,17.11
2019-02-20T13:38:45.990Z,17.29
2019-02-20T13:41:15.611Z,17.47
2019-02-20T13:43:44.981Z,17.67
2019-02-20T13:46:14.337Z,17.58
2019-02-20T13:48:43.727Z,17.51
2019-02-20T13:51:13.120Z,17.33
2019-02-20T13:53:46.388Z,17.67
2019-02-20T13:56:13.582Z,17.46
2019-02-20T13:58:43.054Z,17.44
2019-02-20T14:01:12.402Z,17.57
2019-02-20T14:03:41.755Z,17.38
2019-02-20T14:06:11.132Z,17.67
2019-02-20T14:08:40.484Z,17.66
2019-02-20T14:11:10.124Z,17.91
2019-02-20T14:13:39.467Z,17.76
2019-02-20T14:16:08.896Z,17.51
2019-02-20T14:18:38.256Z,17.45
2019-02-20T14:21:07.660Z,17.60
2019-02-20T14:23:37.034Z,17.61
2019-02-20T14:26:06.754Z,17.94
2019-02-20T14:28:36.102Z,18.03
2019-02-20T14:31:07.066Z,17.88
2019-02-20T14:33:36.497Z,17.75
2019-02-20T14:36:05.836Z,17.46
2019-02-20T14:38:35.199Z,17.36
2019-02-20T14:41:04.989Z,17.13
2019-02-20T14:43:34.408Z,17.69
2019-02-20T14:46:03.734Z,17.63
2019-02-20T14:48:33.080Z,17.41
2019-02-20T14:51:02.688Z,17.11
2019-02-20T14:53:32.036Z,17.04
2019-02-20T14:56:01.396Z,16.89
2019-02-20T14:58:30.734Z,16.87
2019-02-20T15:01:00.148Z,16.90
2019-02-20T15:03:29.473Z,16.90
2019-02-20T15:05:59.001Z,16.84
2019-02-20T15:08:28.393Z,16.88
2019-02-20T15:10:59.081Z,16.83
2019-02-20T15:13:28.723Z,16.79
2019-02-20T15:15:58.090Z,16.68
2019-02-20T15:18:27.426Z,16.55
2019-02-20T15:20:56.868Z,16.57
2019-02-20T15:23:26.272Z,16.50
2019-02-20T15:25:55.644Z,16.46
2019-02-20T15:28:25.025Z,16.36
2019-02-20T15:30:54.380Z,16.29
2019-02-20T15:33:24.025Z,16.22
2019-02-20T15:35:53.362Z,16.19
2019-02-20T15:38:22.771Z,16.13
2019-02-20T15:40:52.104Z,16.04
2019-02-20T15:43:21.640Z,16.01
2019-02-20T15:45:51.050Z,15.91
2019-02-20T15:48:23.376Z,15.87
2019-02-20T15:50:53.056Z,15.81
2019-02-20T15:53:22.450Z,15.75
2019-02-20T15:55:51.838Z,15.69
2019-02-20T15:58:21.576Z,15.63
2019-02-20T16:00:50.919Z,15.57
2019-02-20T16:03:25.276Z,15.52
2019-02-20T16:05:55.222Z,15.49
2019-02-20T16:08:24.516Z,15.43
2019-02-20T16:10:55.152Z,15.36
2019-02-20T16:13:24.556Z,15.31
2019-02-20T16:15:53.981Z,15.25
2019-02-20T16:18:23.400Z,15.21
2019-02-20T16:20:52.742Z,15.15
2019-02-20T16:23:22.091Z,15.05
2019-02-20T16:25:51.451Z,14.98
2019-02-20T16:28:20.854Z,14.90
2019-02-20T16:30:50.281Z,14.86
2019-02-20T16:33:19.651Z,14.81
2019-02-20T16:35:49.006Z,14.74
2019-02-20T16:38:18.427Z,14.65
2019-02-20T16:40:47.858Z,14.60
2019-02-20T16:43:17.579Z,14.57
2019-02-20T16:45:47.018Z,14.54
2019-02-20T16:48:16.357Z,14.42
2019-02-20T16:50:45.707Z,14.26
2019-02-20T16:53:15.165Z,14.20
2019-02-20T16:55:44.531Z,14.13
2019-02-20T16:58:14.061Z,14.06
2019-02-20T17:00:43.488Z,14.00
2019-02-20T17:03:12.855Z,14.00
2019-02-20T17:05:42.193Z,13.92
2019-02-20T17:08:11.869Z,13.87
2019-02-20T17:10:41.217Z,13.79
2019-02-20T17:13:10.631Z,13.78
2019-02-20T17:15:40.033Z,13.74
2019-02-20T17:18:09.456Z,13.73
2019-02-20T17:20:38.907Z,13.67
2019-02-20T17:23:08.338Z,13.64
2019-02-20T17:25:37.686Z,13.60
2019-02-20T17:28:07.134Z,13.60
2019-02-20T17:30:36.477Z,13.51
2019-02-20T17:33:05.903Z,13.47
2019-02-20T17:35:35.246Z,13.39
2019-02-20T17:38:05.291Z,13.32
2019-02-20T17:40:34.729Z,13.37
2019-02-20T17:43:04.073Z,13.33
2019-02-20T17:45:33.419Z,13.36
2019-02-20T17:48:02.758Z,13.36
2019-02-20T17:50:32.105Z,13.36
2019-02-20T17:53:01.465Z,13.31
2019-02-20T17:55:30.829Z,13.28
2019-02-20T17:58:00.175Z,13.22
2019-02-20T18:00:30.057Z,13.21
2019-02-20T18:02:59.405Z,13.20
2019-02-20T18:05:28.862Z,13.25
2019-02-20T18:07:58.288Z,13.19
2019-02-20T18:10:27.717Z,13.13
2019-02-20T18:12:57.087Z,13.11
2019-02-20T18:15:26.533Z,13.09
2019-02-20T18:17:55.881Z,13.04
2019-02-20T18:20:25.332Z,13.10
2019-02-20T18:22:54.682Z,13.06
2019-02-20T18:25:24.056Z,13.05
2019-02-20T18:27:53.519Z,13.06
2019-02-20T18:30:22.886Z,13.05
2019-02-20T18:32:52.248Z,13.04
2019-02-20T18:35:21.611Z,12.99
2019-02-20T18:37:50.999Z,13.03
2019-02-20T18:40:20.444Z,12.97
2019-02-20T18:42:49.798Z,12.98
2019-02-20T18:45:19.137Z,12.97
2019-02-20T18:47:51.710Z,12.98
2019-02-20T18:50:21.477Z,12.96
2019-02-20T18:52:50.811Z,12.96
2019-02-20T18:55:20.267Z,12.98
2019-02-20T18:57:49.674Z,12.94
2019-02-20T19:00:19.244Z,12.91
2019-02-20T19:02:48.688Z,12.85
2019-02-20T19:05:19.077Z,12.80
2019-02-20T19:07:50.471Z,12.85
2019-02-20T19:10:23.955Z,12.87
2019-02-20T19:13:25.520Z,12.86
2019-02-20T19:16:45.002Z,12.81
2019-02-20T19:19:38.819Z,12.84
2019-02-20T19:22:42.125Z,12.87
2019-02-20T19:25:53.179Z,12.88
2019-02-20T19:28:43.831Z,12.87
2019-02-20T19:31:44.324Z,12.86
2019-02-20T19:34:50.605Z,12.83
2019-02-20T19:37:46.613Z,12.80
2019-02-20T19:41:12.626Z,12.81
2019-02-20T19:44:22.530Z,12.81
2019-02-20T19:47:29.393Z,12.73
2019-02-20T19:50:34.173Z,12.72
2019-02-20T19:53:45.286Z,12.64
2019-02-20T19:56:52.567Z,12.54
2019-02-20T19:59:34.415Z,12.39
2019-02-20T20:03:00.142Z,12.34
2019-02-20T20:06:18.823Z,12.29
2019-02-20T20:09:17.417Z,12.32
2019-02-20T20:12:25.412Z,12.26
2019-02-20T20:15:27.431Z,12.23
2019-02-20T20:18:28.875Z,12.23
2019-02-20T20:21:38.471Z,12.17
2019-02-20T20:24:32.938Z,12.13
2019-02-20T20:27:19.689Z,12.07
2019-02-20T20:30:39.345Z,11.97
2019-02-20T20:34:01.253Z,11.88
2019-02-20T20:36:58.807Z,11.75
2019-02-20T20:39:55.331Z,11.66
2019-02-20T20:43:20.342Z,11.65
2019-02-20T20:46:43.721Z,11.73
2019-02-20T20:49:53.581Z,11.79
2019-02-20T20:52:47.488Z,11.75
2019-02-20T20:55:55.411Z,11.82
2019-02-20T20:59:03.341Z,11.68
2019-02-20T21:01:47.009Z,11.52
2019-02-20T21:04:52.665Z,11.55
2019-02-20T21:07:45.093Z,11.55
2019-02-20T21:10:54.330Z,11.64
2019-02-20T21:13:51.403Z,11.59
2019-02-20T21:16:49.232Z,11.56
2019-02-20T21:19:44.499Z,11.53
2019-02-20T21:22:47.916Z,11.48
2019-02-20T21:25:58.587Z,11.49
2019-02-20T21:29:11.362Z,11.41
2019-02-20T21:32:35.093Z,11.46
2019-02-20T21:35:48.299Z,11.56
2019-02-20T21:38:56.366Z,11.45
2019-02-20T21:41:47.916Z,11.22
2019-02-20T21:44:43.306Z,11.11
2019-02-20T21:47:49.469Z,11.09
2019-02-20T21:50:38.338Z,11.11
2019-02-20T21:53:55.663Z,11.36
2019-02-20T21:56:47.415Z,11.37
2019-02-20T21:59:49.273Z,11.27
2019-02-20T22:02:38.216Z,11.18
2019-02-20T22:05:51.986Z,11.15
2019-02-20T22:08:59.417Z,11.12
2019-02-20T22:12:03.863Z,11.15
2019-02-20T22:14:56.953Z,11.20
2019-02-20T22:17:56.867Z,11.23
2019-02-20T22:20:55.306Z,11.25
2019-02-20T22:23:36.735Z,11.11
2019-02-20T22:26:19.129Z,11.05
2019-02-20T22:29:28.740Z,11.03
2019-02-20T22:32:42.186Z,11.12
2019-02-20T22:35:55.796Z,11.08
2019-02-20T22:39:08.480Z,11.10
2019-02-20T22:42:11.232Z,11.10
2019-02-20T22:45:11.798Z,11.12
2019-02-20T22:48:01.429Z,11.15
2019-02-20T22:50:49.825Z,11.09
2019-02-20T22:53:35.914Z,11.14
2019-02-20T22:56:41.393Z,11.06
2019-02-20T22:59:29.122Z,10.98
2019-02-20T23:02:23.652Z,11.11
2019-02-20T23:05:41.952Z,11.13
2019-02-20T23:08:28.020Z,11.18
2019-02-20T23:11:33.137Z,11.21
2019-02-20T23:14:26.101Z,11.22
2019-02-20T23:16:55.530Z,11.18
2019-02-20T23:19:24.933Z,11.20
2019-02-20T23:21:54.270Z,11.24
2019-02-20T23:24:23.694Z,11.25
2019-02-20T23:26:53.060Z,11.25
2019-02-20T23:29:22.446Z,11.18
2019-02-20T23:31:51.776Z,11.07
2019-02-20T23:34:21.185Z,11.06
2019-02-20T23:36:50.513Z,11.05
2019-02-20T23:39:19.871Z,11.10
2019-02-20T23:41:49.197Z,11.17
2019-02-20T23:44:18.592Z,11.19
2019-02-20T23:46:47.951Z,11.17
2019-02-20T23:49:17.299Z,11.20
2019-02-20T23:51:46.820Z,11.22
2019-02-20T23:54:16.184Z,11.19
2019-02-20T23:56:45.609Z,11.18
2019-02-20T23:59:14.974Z,11.18
